sensor_id;sensor_type;location;lat;lon;timestamp;pressure;altitude;pressure_sealevel;temperature;humidity
75006;BME280;63553;51.814;4.600;2023-06-05T00:00:55;102482.75;;;19.77;76.25
75006;BME280;63553;51.814;4.600;2023-06-05T00:03:20;102483.91;;;19.76;75.91
75006;BME280;63553;51.814;4.600;2023-06-05T00:05:45;102484.72;;;19.76;75.89
75006;BME280;63553;51.814;4.600;2023-06-05T00:08:11;102486.94;;;19.71;75.48
75006;BME280;63553;51.814;4.600;2023-06-05T00:10:36;102484.59;;;19.73;75.71
75006;BME280;63553;51.814;4.600;2023-06-05T00:13:02;102482.94;;;19.72;75.08
75006;BME280;63553;51.814;4.600;2023-06-05T00:15:27;102490.25;;;19.73;75.19
75006;BME280;63553;51.814;4.600;2023-06-05T00:17:52;102480.47;;;19.70;75.09
75006;BME280;63553;51.814;4.600;2023-06-05T00:20:20;102480.09;;;19.72;75.01
75006;BME280;63553;51.814;4.600;2023-06-05T00:22:45;102489.41;;;19.72;75.12
75006;BME280;63553;51.814;4.600;2023-06-05T00:25:12;102486.59;;;19.72;75.08
75006;BME280;63553;51.814;4.600;2023-06-05T00:27:37;102482.81;;;19.68;75.31
75006;BME280;63553;51.814;4.600;2023-06-05T00:30:07;102486.94;;;19.71;74.65
75006;BME280;63553;51.814;4.600;2023-06-05T00:32:32;102477.84;;;19.65;74.76
75006;BME280;63553;51.814;4.600;2023-06-05T00:34:57;102485.97;;;19.67;73.76
75006;BME280;63553;51.814;4.600;2023-06-05T00:37:23;102490.44;;;19.68;73.71
75006;BME280;63553;51.814;4.600;2023-06-05T00:39:50;102483.50;;;19.65;73.47
75006;BME280;63553;51.814;4.600;2023-06-05T00:42:15;102485.97;;;19.67;74.12
75006;BME280;63553;51.814;4.600;2023-06-05T00:44:40;102485.97;;;19.67;73.80
75006;BME280;63553;51.814;4.600;2023-06-05T00:47:06;102488.31;;;19.65;73.38
75006;BME280;63553;51.814;4.600;2023-06-05T00:49:31;102473.72;;;19.63;73.86
75006;BME280;63553;51.814;4.600;2023-06-05T00:51:57;102473.59;;;19.59;73.76
75006;BME280;63553;51.814;4.600;2023-06-05T00:54:23;102478.41;;;19.59;72.83
75006;BME280;63553;51.814;4.600;2023-06-05T00:56:48;102481.22;;;19.59;72.97
75006;BME280;63553;51.814;4.600;2023-06-05T00:59:14;102474.59;;;19.55;73.16
75006;BME280;63553;51.814;4.600;2023-06-05T01:01:40;102482.94;;;19.51;72.79
75006;BME280;63553;51.814;4.600;2023-06-05T01:04:08;102480.94;;;19.52;72.83
75006;BME280;63553;51.814;4.600;2023-06-05T01:06:33;102483.44;;;19.53;72.75
75006;BME280;63553;51.814;4.600;2023-06-05T01:09:00;102487.09;;;19.54;72.25
75006;BME280;63553;51.814;4.600;2023-06-05T01:11:42;102489.53;;;19.55;72.12
75006;BME280;63553;51.814;4.600;2023-06-05T01:14:19;102486.25;;;19.53;71.93
75006;BME280;63553;51.814;4.600;2023-06-05T01:16:51;102482.13;;;19.51;71.83
75006;BME280;63553;51.814;4.600;2023-06-05T01:19:22;102481.63;;;19.49;71.44
75006;BME280;63553;51.814;4.600;2023-06-05T01:21:50;102486.09;;;19.50;71.76
75006;BME280;63553;51.814;4.600;2023-06-05T01:24:16;102475.16;;;19.48;71.86
75006;BME280;63553;51.814;4.600;2023-06-05T01:29:21;102478.66;;;19.45;71.46
75006;BME280;63553;51.814;4.600;2023-06-05T01:31:49;102485.63;;;19.48;71.72
75006;BME280;63553;51.814;4.600;2023-06-05T01:34:17;102487.63;;;19.47;71.87
75006;BME280;63553;51.814;4.600;2023-06-05T01:36:45;102486.78;;;19.47;71.72
75006;BME280;63553;51.814;4.600;2023-06-05T01:39:11;102485.97;;;19.46;71.69
75006;BME280;63553;51.814;4.600;2023-06-05T01:41:38;102491.97;;;19.45;71.35
75006;BME280;63553;51.814;4.600;2023-06-05T01:44:06;102478.53;;;19.42;70.61
75006;BME280;63553;51.814;4.600;2023-06-05T01:46:33;102473.69;;;19.42;71.31
75006;BME280;63553;51.814;4.600;2023-06-05T01:48:59;102476.88;;;19.40;70.78
75006;BME280;63553;51.814;4.600;2023-06-05T01:51:26;102473.03;;;19.36;70.56
75006;BME280;63553;51.814;4.600;2023-06-05T01:53:51;102468.59;;;19.35;70.79
75006;BME280;63553;51.814;4.600;2023-06-05T01:56:17;102470.22;;;19.36;70.80
75006;BME280;63553;51.814;4.600;2023-06-05T01:58:46;102465.25;;;19.33;70.42
75006;BME280;63553;51.814;4.600;2023-06-05T02:01:12;102466.59;;;19.36;70.27
75006;BME280;63553;51.814;4.600;2023-06-05T02:03:41;102456.00;;;19.33;70.07
75006;BME280;63553;51.814;4.600;2023-06-05T02:06:13;102453.97;;;19.33;70.09
75006;BME280;63553;51.814;4.600;2023-06-05T02:08:39;102458.00;;;19.32;69.89
75006;BME280;63553;51.814;4.600;2023-06-05T02:11:04;102460.47;;;19.34;69.91
75006;BME280;63553;51.814;4.600;2023-06-05T02:13:34;102458.31;;;19.31;69.86
75006;BME280;63553;51.814;4.600;2023-06-05T02:16:00;102453.03;;;19.29;69.52
75006;BME280;63553;51.814;4.600;2023-06-05T02:18:25;102444.44;;;19.26;69.94
75006;BME280;63553;51.814;4.600;2023-06-05T02:20:55;102448.91;;;19.27;69.76
75006;BME280;63553;51.814;4.600;2023-06-05T02:23:21;102452.06;;;19.25;69.92
75006;BME280;63553;51.814;4.600;2023-06-05T02:25:48;102448.91;;;19.27;70.29
75006;BME280;63553;51.814;4.600;2023-06-05T02:28:13;102444.91;;;19.28;69.94
75006;BME280;63553;51.814;4.600;2023-06-05T02:30:39;102449.72;;;19.27;69.47
75006;BME280;63553;51.814;4.600;2023-06-05T02:33:04;102450.41;;;19.24;69.82
75006;BME280;63553;51.814;4.600;2023-06-05T02:35:29;102452.41;;;19.24;69.64
75006;BME280;63553;51.814;4.600;2023-06-05T02:37:55;102442.28;;;19.23;69.53
75006;BME280;63553;51.814;4.600;2023-06-05T02:40:21;102454.03;;;19.25;69.52
75006;BME280;63553;51.814;4.600;2023-06-05T02:42:47;102443.13;;;19.23;68.94
75006;BME280;63553;51.814;4.600;2023-06-05T02:45:12;102441.94;;;19.24;69.05
75006;BME280;63553;51.814;4.600;2023-06-05T02:47:37;102427.72;;;19.21;69.37
75006;BME280;63553;51.814;4.600;2023-06-05T02:50:03;102437.47;;;19.23;69.40
75006;BME280;63553;51.814;4.600;2023-06-05T02:52:28;102436.66;;;19.23;69.52
75006;BME280;63553;51.814;4.600;2023-06-05T02:54:55;102437.47;;;19.23;69.26
75006;BME280;63553;51.814;4.600;2023-06-05T02:57:20;102428.88;;;19.20;69.56
75006;BME280;63553;51.814;4.600;2023-06-05T02:59:46;102424.22;;;19.24;69.06
75006;BME280;63553;51.814;4.600;2023-06-05T03:02:11;102417.59;;;19.20;69.08
75006;BME280;63553;51.814;4.600;2023-06-05T03:04:37;102415.59;;;19.20;69.02
75006;BME280;63553;51.814;4.600;2023-06-05T03:07:06;102409.97;;;19.20;68.81
75006;BME280;63553;51.814;4.600;2023-06-05T03:09:32;102422.75;;;19.18;68.10
75006;BME280;63553;51.814;4.600;2023-06-05T03:11:58;102415.09;;;19.18;68.57
75006;BME280;63553;51.814;4.600;2023-06-05T03:14:24;102413.13;;;19.19;67.82
75006;BME280;63553;51.814;4.600;2023-06-05T03:16:49;102417.44;;;19.16;67.97
75006;BME280;63553;51.814;4.600;2023-06-05T03:19:15;102412.28;;;19.18;68.78
75006;BME280;63553;51.814;4.600;2023-06-05T03:21:41;102423.91;;;19.17;68.04
75006;BME280;63553;51.814;4.600;2023-06-05T03:24:09;102416.16;;;19.14;68.15
75006;BME280;63553;51.814;4.600;2023-06-05T03:26:36;102409.00;;;19.16;67.87
75006;BME280;63553;51.814;4.600;2023-06-05T03:29:02;102416.16;;;19.14;68.21
75006;BME280;63553;51.814;4.600;2023-06-05T03:31:27;102416.47;;;19.12;67.80
75006;BME280;63553;51.814;4.600;2023-06-05T03:33:52;102415.78;;;19.15;67.74
75006;BME280;63553;51.814;4.600;2023-06-05T03:36:18;102417.81;;;19.15;67.57
75006;BME280;63553;51.814;4.600;2023-06-05T03:38:44;102410.16;;;19.15;67.65
75006;BME280;63553;51.814;4.600;2023-06-05T03:41:09;102408.00;;;19.12;68.07
75006;BME280;63553;51.814;4.600;2023-06-05T03:43:35;102411.66;;;19.13;68.01
75006;BME280;63553;51.814;4.600;2023-06-05T03:46:01;102401.91;;;19.10;67.29
75006;BME280;63553;51.814;4.600;2023-06-05T03:48:27;102412.84;;;19.12;67.82
75006;BME280;63553;51.814;4.600;2023-06-05T03:50:52;102416.47;;;19.12;67.16
75006;BME280;63553;51.814;4.600;2023-06-05T03:53:19;102418.13;;;19.13;67.22
75006;BME280;63553;51.814;4.600;2023-06-05T03:55:44;102414.00;;;19.11;67.18
75006;BME280;63553;51.814;4.600;2023-06-05T03:58:15;102412.03;;;19.11;67.15
75006;BME280;63553;51.814;4.600;2023-06-05T04:00:42;102418.13;;;19.13;67.29
75006;BME280;63553;51.814;4.600;2023-06-05T04:03:08;102418.91;;;19.22;66.63
75006;BME280;63553;51.814;4.600;2023-06-05T04:05:34;102420.28;;;19.37;67.39
75006;BME280;63553;51.814;4.600;2023-06-05T04:08:00;102428.31;;;19.56;67.51
75006;BME280;63553;51.814;4.600;2023-06-05T04:10:26;102435.63;;;15.57;62.21
75006;BME280;63553;51.814;4.600;2023-06-05T04:12:51;102436.22;;;15.18;68.68
75006;BME280;63553;51.814;4.600;2023-06-05T04:15:17;102433.06;;;13.04;72.46
75006;BME280;63553;51.814;4.600;2023-06-05T04:17:44;102436.00;;;14.19;72.09
75006;BME280;63553;51.814;4.600;2023-06-05T04:20:09;102431.25;;;12.94;72.72
75006;BME280;63553;51.814;4.600;2023-06-05T04:22:39;102443.47;;;13.91;68.83
75006;BME280;63553;51.814;4.600;2023-06-05T04:25:05;102445.97;;;13.23;71.03
75006;BME280;63553;51.814;4.600;2023-06-05T04:27:31;102452.81;;;13.50;70.55
75006;BME280;63553;51.814;4.600;2023-06-05T04:29:56;102444.34;;;14.06;70.60
75006;BME280;63553;51.814;4.600;2023-06-05T04:32:22;102454.03;;;12.59;73.85
75006;BME280;63553;51.814;4.600;2023-06-05T04:34:47;102453.19;;;13.24;72.72
75006;BME280;63553;51.814;4.600;2023-06-05T04:37:12;102452.53;;;12.66;74.94
75006;BME280;63553;51.814;4.600;2023-06-05T04:39:38;102451.72;;;14.34;70.73
75006;BME280;63553;51.814;4.600;2023-06-05T04:42:04;102459.84;;;15.75;66.99
75006;BME280;63553;51.814;4.600;2023-06-05T04:44:29;102461.63;;;14.08;67.07
75006;BME280;63553;51.814;4.600;2023-06-05T04:46:55;102459.31;;;14.74;68.08
75006;BME280;63553;51.814;4.600;2023-06-05T04:49:21;102464.69;;;13.42;72.88
75006;BME280;63553;51.814;4.600;2023-06-05T04:51:48;102470.13;;;13.33;72.81
75006;BME280;63553;51.814;4.600;2023-06-05T04:54:14;102464.69;;;13.42;72.03
75006;BME280;63553;51.814;4.600;2023-06-05T04:56:39;102458.94;;;15.66;66.80
75006;BME280;63553;51.814;4.600;2023-06-05T04:59:05;102471.09;;;12.29;74.04
75006;BME280;63553;51.814;4.600;2023-06-05T05:01:31;102466.22;;;12.39;77.01
75006;BME280;63553;51.814;4.600;2023-06-05T05:03:56;102468.75;;;13.12;74.79
75006;BME280;63553;51.814;4.600;2023-06-05T05:06:22;102458.59;;;13.72;73.76
75006;BME280;63553;51.814;4.600;2023-06-05T05:08:47;102462.19;;;12.98;75.60
75006;BME280;63553;51.814;4.600;2023-06-05T05:11:16;102462.97;;;13.27;72.97
75006;BME280;63553;51.814;4.600;2023-06-05T05:13:42;102463.16;;;13.49;71.57
75006;BME280;63553;51.814;4.600;2023-06-05T05:16:08;102466.78;;;13.12;70.69
75006;BME280;63553;51.814;4.600;2023-06-05T05:18:39;102471.56;;;12.07;76.00
75006;BME280;63553;51.814;4.600;2023-06-05T05:21:05;102468.97;;;12.68;73.50
75006;BME280;63553;51.814;4.600;2023-06-05T05:23:32;102467.44;;;12.57;73.02
75006;BME280;63553;51.814;4.600;2023-06-05T05:25:58;102459.78;;;14.49;70.54
75006;BME280;63553;51.814;4.600;2023-06-05T05:28:23;102473.69;;;12.72;74.62
75006;BME280;63553;51.814;4.600;2023-06-05T05:30:49;102475.97;;;12.65;74.53
75006;BME280;63553;51.814;4.600;2023-06-05T05:33:15;102467.31;;;13.70;70.61
75006;BME280;63553;51.814;4.600;2023-06-05T05:35:40;102465.16;;;13.81;69.08
75006;BME280;63553;51.814;4.600;2023-06-05T05:38:06;102467.91;;;14.32;68.78
75006;BME280;63553;51.814;4.600;2023-06-05T05:40:31;102464.66;;;14.43;68.22
75006;BME280;63553;51.814;4.600;2023-06-05T05:42:56;102461.00;;;15.96;63.38
75006;BME280;63553;51.814;4.600;2023-06-05T05:45:22;102466.47;;;13.70;68.86
75006;BME280;63553;51.814;4.600;2023-06-05T05:47:47;102457.84;;;15.53;64.09
75006;BME280;63553;51.814;4.600;2023-06-05T05:50:13;102458.22;;;15.25;65.46
75006;BME280;63553;51.814;4.600;2023-06-05T05:52:38;102453.47;;;17.06;60.09
75006;BME280;63553;51.814;4.600;2023-06-05T05:55:04;102458.91;;;16.55;60.17
75006;BME280;63553;51.814;4.600;2023-06-05T05:57:30;102456.00;;;15.49;62.98
75006;BME280;63553;51.814;4.600;2023-06-05T05:59:56;102456.63;;;14.69;66.58
75006;BME280;63553;51.814;4.600;2023-06-05T06:02:21;102463.78;;;15.52;73.00
75006;BME280;63553;51.814;4.600;2023-06-05T06:04:47;102461.34;;;15.59;77.31
75006;BME280;63553;51.814;4.600;2023-06-05T06:07:13;102460.97;;;16.19;70.94
75006;BME280;63553;51.814;4.600;2023-06-05T06:09:39;102462.69;;;18.44;81.23
75006;BME280;63553;51.814;4.600;2023-06-05T06:12:05;102453.09;;;16.91;61.00
75006;BME280;63553;51.814;4.600;2023-06-05T06:14:33;102457.06;;;17.72;67.75
75006;BME280;63553;51.814;4.600;2023-06-05T06:16:59;102451.72;;;18.98;70.74
75006;BME280;63553;51.814;4.600;2023-06-05T06:19:24;102449.78;;;16.89;63.19
75006;BME280;63553;51.814;4.600;2023-06-05T06:21:51;102453.63;;;18.30;57.24
75006;BME280;63553;51.814;4.600;2023-06-05T06:24:19;102466.00;;;15.28;63.98
75006;BME280;63553;51.814;4.600;2023-06-05T06:26:48;102470.97;;;16.55;60.72
75006;BME280;63553;51.814;4.600;2023-06-05T06:29:24;102464.25;;;16.65;59.47
75006;BME280;63553;51.814;4.600;2023-06-05T06:31:50;102461.50;;;17.99;58.14
75006;BME280;63553;51.814;4.600;2023-06-05T06:34:16;102469.13;;;17.81;56.06
75006;BME280;63553;51.814;4.600;2023-06-05T06:36:42;102470.38;;;18.26;59.02
75006;BME280;63553;51.814;4.600;2023-06-05T06:39:12;102474.50;;;17.26;58.75
75006;BME280;63553;51.814;4.600;2023-06-05T06:41:38;102462.50;;;17.60;58.51
75006;BME280;63553;51.814;4.600;2023-06-05T06:44:04;102471.84;;;17.12;58.83
75006;BME280;63553;51.814;4.600;2023-06-05T06:46:30;102472.50;;;18.93;54.41
75006;BME280;63553;51.814;4.600;2023-06-05T06:48:56;102472.53;;;18.21;55.62
75006;BME280;63553;51.814;4.600;2023-06-05T06:51:21;102476.22;;;18.04;56.38
75006;BME280;63553;51.814;4.600;2023-06-05T06:53:50;102475.34;;;16.79;58.91
75006;BME280;63553;51.814;4.600;2023-06-05T06:56:17;102482.50;;;16.54;58.94
75006;BME280;63553;51.814;4.600;2023-06-05T06:58:43;102476.63;;;18.58;53.71
75006;BME280;63553;51.814;4.600;2023-06-05T07:01:08;102466.25;;;17.30;57.32
75006;BME280;63553;51.814;4.600;2023-06-05T07:03:34;102476.22;;;17.61;56.35
75006;BME280;63553;51.814;4.600;2023-06-05T07:06:00;102476.41;;;19.09;52.69
75006;BME280;63553;51.814;4.600;2023-06-05T07:08:26;102480.69;;;17.88;56.10
75006;BME280;63553;51.814;4.600;2023-06-05T07:10:52;102475.41;;;17.95;57.36
75006;BME280;63553;51.814;4.600;2023-06-05T07:13:20;102486.34;;;18.05;55.79
75006;BME280;63553;51.814;4.600;2023-06-05T07:15:46;102481.22;;;17.08;57.87
75006;BME280;63553;51.814;4.600;2023-06-05T07:18:12;102475.97;;;19.19;52.88
75006;BME280;63553;51.814;4.600;2023-06-05T07:20:37;102478.84;;;20.02;52.49
75006;BME280;63553;51.814;4.600;2023-06-05T07:23:02;102477.88;;;17.88;56.53
75006;BME280;63553;51.814;4.600;2023-06-05T07:25:28;102472.88;;;19.12;53.70
75006;BME280;63553;51.814;4.600;2023-06-05T07:27:53;102479.75;;;20.47;48.46
75006;BME280;63553;51.814;4.600;2023-06-05T07:30:18;102482.03;;;20.90;47.81
75006;BME280;63553;51.814;4.600;2023-06-05T07:32:44;102476.56;;;19.95;50.52
75006;BME280;63553;51.814;4.600;2023-06-05T07:35:10;102487.31;;;18.09;56.75
75006;BME280;63553;51.814;4.600;2023-06-05T07:37:36;102478.53;;;19.42;51.58
75006;BME280;63553;51.814;4.600;2023-06-05T07:40:01;102478.75;;;18.61;52.34
75006;BME280;63553;51.814;4.600;2023-06-05T07:42:27;102477.13;;;20.10;50.72
75006;BME280;63553;51.814;4.600;2023-06-05T07:44:53;102473.75;;;21.86;47.32
75006;BME280;63553;51.814;4.600;2023-06-05T07:47:18;102485.13;;;21.10;47.05
75006;BME280;63553;51.814;4.600;2023-06-05T07:49:43;102483.63;;;19.19;50.80
75006;BME280;63553;51.814;4.600;2023-06-05T07:52:09;102481.59;;;18.35;56.47
75006;BME280;63553;51.814;4.600;2023-06-05T07:54:34;102491.84;;;20.15;52.05
75006;BME280;63553;51.814;4.600;2023-06-05T07:56:59;102472.63;;;21.35;47.41
75006;BME280;63553;51.814;4.600;2023-06-05T07:59:25;102471.31;;;22.55;45.20
75006;BME280;63553;51.814;4.600;2023-06-05T08:01:53;102470.75;;;22.06;47.03
75006;BME280;63553;51.814;4.600;2023-06-05T08:04:19;102477.63;;;19.91;49.43
75006;BME280;63553;51.814;4.600;2023-06-05T08:06:45;102473.09;;;23.07;44.48
75006;BME280;63553;51.814;4.600;2023-06-05T08:09:10;102474.66;;;22.89;43.34
75006;BME280;63553;51.814;4.600;2023-06-05T08:11:37;102469.75;;;23.36;43.02
75006;BME280;63553;51.814;4.600;2023-06-05T08:14:02;102476.84;;;22.95;44.77
75006;BME280;63553;51.814;4.600;2023-06-05T08:16:29;102468.41;;;22.99;44.50
75006;BME280;63553;51.814;4.600;2023-06-05T08:18:55;102459.56;;;23.51;42.24
75006;BME280;63553;51.814;4.600;2023-06-05T08:21:22;102479.28;;;18.54;54.44
75006;BME280;63553;51.814;4.600;2023-06-05T08:23:47;102467.31;;;19.74;51.18
75006;BME280;63553;51.814;4.600;2023-06-05T08:26:13;102463.47;;;22.96;43.88
75006;BME280;63553;51.814;4.600;2023-06-05T08:28:41;102459.56;;;22.69;44.91
75006;BME280;63553;51.814;4.600;2023-06-05T08:31:08;102453.94;;;22.41;44.47
75006;BME280;63553;51.814;4.600;2023-06-05T08:33:35;102466.38;;;23.15;43.72
75006;BME280;63553;51.814;4.600;2023-06-05T08:36:00;102462.75;;;22.99;44.70
75006;BME280;63553;51.814;4.600;2023-06-05T08:38:26;102452.19;;;23.31;43.22
75006;BME280;63553;51.814;4.600;2023-06-05T08:40:56;102448.00;;;22.46;44.57
75006;BME280;63553;51.814;4.600;2023-06-05T08:43:25;102444.50;;;21.54;43.82
75006;BME280;63553;51.814;4.600;2023-06-05T08:45:55;102464.84;;;19.73;48.30
75006;BME280;63553;51.814;4.600;2023-06-05T08:48:22;102463.03;;;19.89;49.65
75006;BME280;63553;51.814;4.600;2023-06-05T08:50:50;102454.94;;;19.17;50.29
75006;BME280;63553;51.814;4.600;2023-06-05T08:53:17;102451.97;;;21.46;47.29
75006;BME280;63553;51.814;4.600;2023-06-05T08:55:47;102465.16;;;20.45;48.76
75006;BME280;63553;51.814;4.600;2023-06-05T08:58:13;102452.00;;;21.22;45.84
75006;BME280;63553;51.814;4.600;2023-06-05T09:00:39;102452.56;;;21.03;47.17
75006;BME280;63553;51.814;4.600;2023-06-05T09:03:05;102455.19;;;21.09;47.16
75006;BME280;63553;51.814;4.600;2023-06-05T09:05:31;102453.53;;;20.95;48.01
75006;BME280;63553;51.814;4.600;2023-06-05T09:07:57;102440.63;;;23.23;43.60
75006;BME280;63553;51.814;4.600;2023-06-05T09:10:24;102435.59;;;22.82;43.14
75006;BME280;63553;51.814;4.600;2023-06-05T09:15:29;102449.41;;;24.07;41.79
75006;BME280;63553;51.814;4.600;2023-06-05T09:18:12;102444.00;;;23.29;43.21
75006;BME280;63553;51.814;4.600;2023-06-05T09:20:44;102441.16;;;23.45;42.75
75006;BME280;63553;51.814;4.600;2023-06-05T09:23:26;102442.66;;;23.23;42.46
75006;BME280;63553;51.814;4.600;2023-06-05T09:25:59;102435.16;;;22.80;42.69
75006;BME280;63553;51.814;4.600;2023-06-05T09:28:25;102444.47;;;21.66;46.68
75006;BME280;63553;51.814;4.600;2023-06-05T09:33:25;102437.22;;;23.68;43.09
75006;BME280;63553;51.814;4.600;2023-06-05T09:36:08;102426.88;;;24.18;41.36
75006;BME280;63553;51.814;4.600;2023-06-05T09:38:34;102428.63;;;23.84;42.06
75006;BME280;63553;51.814;4.600;2023-06-05T09:41:07;102435.69;;;24.32;41.55
75006;BME280;63553;51.814;4.600;2023-06-05T09:43:33;102429.22;;;23.93;41.34
75006;BME280;63553;51.814;4.600;2023-06-05T09:45:59;102435.69;;;22.11;46.49
75006;BME280;63553;51.814;4.600;2023-06-05T09:48:24;102431.69;;;24.14;41.70
75006;BME280;63553;51.814;4.600;2023-06-05T09:50:51;102431.78;;;23.25;44.42
75006;BME280;63553;51.814;4.600;2023-06-05T09:53:19;102432.13;;;23.39;43.54
75006;BME280;63553;51.814;4.600;2023-06-05T09:55:45;102434.22;;;23.61;42.76
75006;BME280;63553;51.814;4.600;2023-06-05T09:58:12;102429.91;;;23.33;43.31
75006;BME280;63553;51.814;4.600;2023-06-05T10:00:40;102433.50;;;23.84;42.18
75006;BME280;63553;51.814;4.600;2023-06-05T10:03:14;102433.56;;;23.68;43.05
75006;BME280;63553;51.814;4.600;2023-06-05T10:05:40;102428.09;;;23.24;43.91
75006;BME280;63553;51.814;4.600;2023-06-05T10:08:07;102435.09;;;21.90;46.73
75006;BME280;63553;51.814;4.600;2023-06-05T10:10:33;102427.88;;;21.52;46.50
75006;BME280;63553;51.814;4.600;2023-06-05T10:13:00;102428.69;;;22.52;45.70
75006;BME280;63553;51.814;4.600;2023-06-05T10:15:26;102439.09;;;21.89;47.46
75006;BME280;63553;51.814;4.600;2023-06-05T10:17:52;102427.53;;;22.09;45.74
75006;BME280;63553;51.814;4.600;2023-06-05T10:20:18;102421.66;;;22.46;45.42
75006;BME280;63553;51.814;4.600;2023-06-05T10:22:44;102425.31;;;22.46;45.10
75006;BME280;63553;51.814;4.600;2023-06-05T10:25:10;102415.44;;;22.40;45.79
75006;BME280;63553;51.814;4.600;2023-06-05T10:38:26;102412.84;;;22.20;46.05
75006;BME280;63553;51.814;4.600;2023-06-05T10:40:57;102419.53;;;22.11;46.06
75006;BME280;63553;51.814;4.600;2023-06-05T10:45:59;102417.88;;;21.71;47.73
75006;BME280;63553;51.814;4.600;2023-06-05T10:49:17;102413.09;;;21.07;48.08
75006;BME280;63553;51.814;4.600;2023-06-05T10:51:48;102425.34;;;20.06;49.79
75006;BME280;63553;51.814;4.600;2023-06-05T10:59:25;102409.00;;;20.92;49.03
75006;BME280;63553;51.814;4.600;2023-06-05T11:07:22;102412.91;;;19.53;51.89
75006;BME280;63553;51.814;4.600;2023-06-05T11:10:10;102407.25;;;20.64;49.94
75006;BME280;63553;51.814;4.600;2023-06-05T11:15:09;102399.56;;;20.76;48.90
75006;BME280;63553;51.814;4.600;2023-06-05T11:20:09;102404.97;;;20.33;50.29
75006;BME280;63553;51.814;4.600;2023-06-05T11:27:55;102391.81;;;19.30;52.44
75006;BME280;63553;51.814;4.600;2023-06-05T11:30:23;102398.88;;;19.45;53.11
75006;BME280;63553;51.814;4.600;2023-06-05T11:32:50;102390.47;;;19.57;51.21
75006;BME280;63553;51.814;4.600;2023-06-05T11:35:21;102390.84;;;19.26;53.36
75006;BME280;63553;51.814;4.600;2023-06-05T11:37:47;102392.91;;;20.24;50.98
75006;BME280;63553;51.814;4.600;2023-06-05T11:40:23;102385.75;;;19.61;52.16
75006;BME280;63553;51.814;4.600;2023-06-05T11:42:49;102387.19;;;20.00;51.83
75006;BME280;63553;51.814;4.600;2023-06-05T11:45:14;102384.28;;;20.08;52.08
75006;BME280;63553;51.814;4.600;2023-06-05T11:47:40;102378.47;;;20.74;51.21
75006;BME280;63553;51.814;4.600;2023-06-05T11:52:35;102379.09;;;20.22;50.29
75006;BME280;63553;51.814;4.600;2023-06-05T11:55:23;102374.47;;;20.75;50.49
75006;BME280;63553;51.814;4.600;2023-06-05T11:57:57;102381.44;;;20.77;48.84
75006;BME280;63553;51.814;4.600;2023-06-05T12:00:25;102387.81;;;19.72;51.64
75006;BME280;63553;51.814;4.600;2023-06-05T12:02:51;102384.41;;;19.79;52.46
75006;BME280;63553;51.814;4.600;2023-06-05T12:05:17;102374.88;;;19.71;52.65
75006;BME280;63553;51.814;4.600;2023-06-05T12:07:42;102382.69;;;19.86;51.74
75006;BME280;63553;51.814;4.600;2023-06-05T12:10:09;102377.28;;;19.93;52.52
75006;BME280;63553;51.814;4.600;2023-06-05T12:12:35;102383.72;;;19.49;52.06
75006;BME280;63553;51.814;4.600;2023-06-05T12:15:26;102375.91;;;20.81;50.06
75006;BME280;63553;51.814;4.600;2023-06-05T12:17:56;102377.06;;;19.86;51.27
75006;BME280;63553;51.814;4.600;2023-06-05T12:20:22;102371.50;;;20.95;49.73
75006;BME280;63553;51.814;4.600;2023-06-05T12:22:49;102368.19;;;21.05;48.76
75006;BME280;63553;51.814;4.600;2023-06-05T12:25:18;102372.50;;;20.06;51.26
75006;BME280;63553;51.814;4.600;2023-06-05T12:27:44;102377.84;;;19.87;52.23
75006;BME280;63553;51.814;4.600;2023-06-05T12:30:11;102362.81;;;20.64;50.66
75006;BME280;63553;51.814;4.600;2023-06-05T12:32:37;102371.00;;;20.21;50.28
75006;BME280;63553;51.814;4.600;2023-06-05T12:35:04;102368.81;;;20.26;51.45
75006;BME280;63553;51.814;4.600;2023-06-05T12:37:34;102365.03;;;19.77;52.26
75006;BME280;63553;51.814;4.600;2023-06-05T12:40:03;102364.38;;;19.39;53.04
75006;BME280;63553;51.814;4.600;2023-06-05T12:42:37;102358.13;;;19.99;52.72
75006;BME280;63553;51.814;4.600;2023-06-05T12:45:07;102357.28;;;20.43;51.56
75006;BME280;63553;51.814;4.600;2023-06-05T12:47:39;102360.72;;;20.37;51.69
75006;BME280;63553;51.814;4.600;2023-06-05T12:50:06;102346.47;;;20.58;51.57
75006;BME280;63553;51.814;4.600;2023-06-05T12:52:33;102356.56;;;20.59;51.08
75006;BME280;63553;51.814;4.600;2023-06-05T12:54:59;102349.16;;;20.78;50.49
75006;BME280;63553;51.814;4.600;2023-06-05T12:57:25;102354.13;;;20.00;53.06
75006;BME280;63553;51.814;4.600;2023-06-05T12:59:52;102341.19;;;19.99;52.68
75006;BME280;63553;51.814;4.600;2023-06-05T13:02:18;102342.94;;;20.61;51.77
75006;BME280;63553;51.814;4.600;2023-06-05T13:04:44;102355.81;;;20.13;51.69
75006;BME280;63553;51.814;4.600;2023-06-05T13:07:09;102340.19;;;20.76;51.31
75006;BME280;63553;51.814;4.600;2023-06-05T13:09:36;102328.44;;;21.26;50.09
75006;BME280;63553;51.814;4.600;2023-06-05T13:12:01;102331.56;;;20.97;50.67
75006;BME280;63553;51.814;4.600;2023-06-05T13:14:29;102321.47;;;20.23;51.90
75006;BME280;63553;51.814;4.600;2023-06-05T13:16:56;102332.59;;;20.08;52.78
75006;BME280;63553;51.814;4.600;2023-06-05T13:19:21;102314.69;;;20.61;52.58
75006;BME280;63553;51.814;4.600;2023-06-05T13:21:47;102318.84;;;20.91;51.43
75006;BME280;63553;51.814;4.600;2023-06-05T13:24:12;102310.69;;;21.14;50.67
75006;BME280;63553;51.814;4.600;2023-06-05T13:26:37;102313.56;;;20.89;51.40
75006;BME280;63553;51.814;4.600;2023-06-05T13:29:03;102313.16;;;21.03;51.91
75006;BME280;63553;51.814;4.600;2023-06-05T13:31:28;102312.13;;;20.11;52.44
75006;BME280;63553;51.814;4.600;2023-06-05T13:33:54;102311.22;;;20.79;51.79